createdAt,value
2018-05-23T00:00:55.320Z,74.52
2018-05-23T00:01:55.251Z,75.01
2018-05-23T00:02:55.185Z,74.72
2018-05-23T00:03:55.123Z,75.40
2018-05-23T00:04:55.079Z,75.40
2018-05-23T00:05:55.011Z,75.01
2018-05-23T00:06:54.936Z,75.40
2018-05-23T00:07:54.878Z,75.59
2018-05-23T00:08:54.810Z,76.26
2018-05-23T00:09:54.747Z,75.49
2018-05-23T00:10:54.689Z,75.68
2018-05-23T00:11:54.625Z,75.59
2018-05-23T00:12:54.557Z,75.78
2018-05-23T00:13:54.494Z,75.59
2018-05-23T00:14:54.447Z,75.59
2018-05-23T00:15:54.372Z,75.68
2018-05-23T00:16:54.309Z,75.97
2018-05-23T00:17:54.257Z,76.07
2018-05-23T00:18:54.181Z,76.17
2018-05-23T00:19:54.124Z,75.97
2018-05-23T00:20:54.071Z,76.36
2018-05-23T00:21:53.996Z,76.75
2018-05-23T00:22:53.931Z,75.88
2018-05-23T00:23:53.881Z,76.36
2018-05-23T00:24:53.818Z,76.36
2018-05-23T00:25:53.751Z,75.88
2018-05-23T00:26:53.684Z,75.88
2018-05-23T00:27:53.616Z,76.17
2018-05-23T00:28:53.555Z,75.49
2018-05-23T00:29:53.492Z,76.26
2018-05-23T00:30:53.426Z,76.36
2018-05-23T00:31:53.367Z,76.17
2018-05-23T00:32:53.307Z,76.36
2018-05-23T00:33:53.241Z,75.78
2018-05-23T00:34:53.177Z,76.17
2018-05-23T00:35:53.116Z,76.80
2018-05-23T00:36:53.065Z,76.84
2018-05-23T00:37:52.989Z,76.51
2018-05-23T00:38:52.923Z,76.80
2018-05-23T00:39:52.861Z,76.55
2018-05-23T00:40:52.801Z,76.32
2018-05-23T00:41:52.737Z,76.32
2018-05-23T00:42:52.672Z,76.26
2018-05-23T00:43:52.614Z,76.32
2018-05-23T00:44:52.560Z,76.42
2018-05-23T00:45:52.480Z,76.61
2018-05-23T00:46:52.412Z,76.61
2018-05-23T00:47:52.358Z,76.32
2018-05-23T00:48:52.324Z,76.51
2018-05-23T00:49:52.233Z,76.32
2018-05-23T00:50:52.192Z,76.61
2018-05-23T00:51:52.116Z,76.32
2018-05-23T00:52:52.050Z,76.90
2018-05-23T00:53:51.983Z,76.42
2018-05-23T00:54:51.929Z,76.32
2018-05-23T00:55:51.857Z,76.42
2018-05-23T00:56:51.797Z,76.61
2018-05-23T00:57:51.734Z,75.93
2018-05-23T00:58:51.672Z,76.13
2018-05-23T00:59:51.611Z,76.32
2018-05-23T01:00:51.543Z,76.13
2018-05-23T01:01:51.493Z,76.32
2018-05-23T01:02:51.435Z,76.42
2018-05-23T01:03:51.353Z,76.51
2018-05-23T01:04:51.295Z,76.32
2018-05-23T01:05:51.229Z,76.42
2018-05-23T01:06:51.162Z,76.61
2018-05-23T01:07:51.108Z,76.61
2018-05-23T01:08:51.049Z,76.90
2018-05-23T01:09:50.980Z,76.71
2018-05-23T01:10:50.963Z,76.90
2018-05-23T01:11:50.847Z,76.71
2018-05-23T01:12:50.787Z,76.76
2018-05-23T01:13:50.721Z,76.38
2018-05-23T01:14:50.682Z,76.38
2018-05-23T01:15:50.584Z,76.51
2018-05-23T01:16:50.545Z,75.61
2018-05-23T01:17:50.465Z,75.84
2018-05-23T01:18:50.402Z,76.13
2018-05-23T01:19:50.344Z,75.90
2018-05-23T01:20:50.275Z,75.23
2018-05-23T01:21:50.279Z,75.13
2018-05-23T01:22:50.161Z,75.13
2018-05-23T01:23:50.171Z,75.26
2018-05-23T01:24:50.852Z,75.51
2018-05-23T01:25:50.183Z,75.32
2018-05-23T01:26:49.903Z,75.42
2018-05-23T01:27:49.853Z,75.71
2018-05-23T01:28:49.769Z,74.93
2018-05-23T01:29:49.722Z,75.13
2018-05-23T01:30:49.638Z,75.42
2018-05-23T01:31:49.594Z,74.45
2018-05-23T01:32:49.523Z,74.45
2018-05-23T01:33:49.462Z,74.26
2018-05-23T01:34:49.403Z,73.97
2018-05-23T01:35:49.339Z,73.88
2018-05-23T01:36:49.273Z,74.26
2018-05-23T01:37:49.203Z,73.97
2018-05-23T01:38:49.141Z,73.68
2018-05-23T01:39:49.084Z,73.97
2018-05-23T01:40:49.042Z,74.26
2018-05-23T01:41:48.960Z,73.39
2018-05-23T01:42:48.901Z,73.30
2018-05-23T01:43:48.826Z,73.49
2018-05-23T01:44:48.772Z,73.30
2018-05-23T01:45:48.694Z,73.49
2018-05-23T01:46:48.628Z,73.39
2018-05-23T01:47:48.569Z,73.30
2018-05-23T01:48:48.510Z,73.20
2018-05-23T01:49:48.452Z,72.72
2018-05-23T01:50:48.376Z,72.81
2018-05-23T01:51:48.328Z,73.01
2018-05-23T01:52:48.270Z,73.10
2018-05-23T01:53:48.200Z,72.91
2018-05-23T01:54:48.135Z,73.01
2018-05-23T01:55:48.071Z,72.81
2018-05-23T01:56:48.003Z,72.72
2018-05-23T01:57:47.944Z,72.24
2018-05-23T01:58:47.865Z,72.43
2018-05-23T01:59:47.816Z,72.05
2018-05-23T02:00:47.748Z,71.85
2018-05-23T02:01:47.690Z,72.14
2018-05-23T02:02:47.619Z,72.14
2018-05-23T02:03:47.572Z,71.95
2018-05-23T02:04:47.514Z,72.05
2018-05-23T02:05:47.430Z,72.14
2018-05-23T02:06:47.380Z,71.66
2018-05-23T02:07:47.309Z,71.95
2018-05-23T02:08:47.241Z,71.62
2018-05-23T02:09:47.195Z,71.62
2018-05-23T02:10:47.109Z,71.76
2018-05-23T02:11:47.050Z,71.56
2018-05-23T02:12:47.002Z,71.18
2018-05-23T02:13:46.921Z,71.56
2018-05-23T02:14:46.865Z,70.98
2018-05-23T02:15:46.795Z,71.08
2018-05-23T02:16:46.729Z,71.37
2018-05-23T02:17:46.667Z,70.70
2018-05-23T02:18:46.612Z,71.37
2018-05-23T02:19:46.552Z,71.53
2018-05-23T02:20:46.474Z,70.86
2018-05-23T02:21:46.421Z,70.79
2018-05-23T02:22:46.380Z,70.95
2018-05-23T02:23:46.299Z,70.60
2018-05-23T02:24:46.225Z,70.76
2018-05-23T02:25:46.173Z,70.28
2018-05-23T02:26:46.090Z,70.18
2018-05-23T02:27:46.039Z,70.76
2018-05-23T02:28:45.971Z,70.09
2018-05-23T02:29:45.917Z,70.18
2018-05-23T02:30:45.853Z,70.09
2018-05-23T02:31:45.776Z,70.37
2018-05-23T02:32:45.725Z,70.09
2018-05-23T02:33:45.652Z,70.09
2018-05-23T02:34:45.584Z,70.28
2018-05-23T02:35:45.587Z,70.47
2018-05-23T02:36:45.472Z,70.37
2018-05-23T02:37:45.398Z,70.47
2018-05-23T02:38:45.337Z,70.21
2018-05-23T02:39:45.269Z,70.21
2018-05-23T02:40:45.217Z,70.18
2018-05-23T02:41:45.153Z,69.79
2018-05-23T02:42:45.086Z,70.31
2018-05-23T02:43:45.020Z,69.70
2018-05-23T02:44:44.956Z,70.18
2018-05-23T02:45:44.901Z,70.18
2018-05-23T02:46:44.837Z,70.09
2018-05-23T02:47:44.764Z,69.70
2018-05-23T02:48:44.701Z,69.79
2018-05-23T02:49:44.634Z,69.83
2018-05-23T02:50:44.588Z,69.99
2018-05-23T02:51:44.520Z,69.99
2018-05-23T02:52:44.473Z,69.99
2018-05-23T02:53:44.381Z,69.79
2018-05-23T02:54:44.327Z,70.18
2018-05-23T02:55:44.249Z,69.22
2018-05-23T02:56:44.200Z,69.38
2018-05-23T02:57:44.138Z,68.90
2018-05-23T02:58:44.066Z,68.70
2018-05-23T02:59:43.996Z,68.64
2018-05-23T03:00:43.941Z,68.90
2018-05-23T03:01:43.887Z,68.60
2018-05-23T03:02:43.835Z,68.60
2018-05-23T03:03:43.764Z,68.32
2018-05-23T03:04:43.684Z,68.51
2018-05-23T03:05:43.639Z,68.54
2018-05-23T03:06:43.585Z,67.83
2018-05-23T03:07:43.486Z,68.80
2018-05-23T03:08:43.428Z,68.54
2018-05-23T03:09:43.357Z,68.64
2018-05-23T03:10:43.300Z,68.54
2018-05-23T03:11:43.247Z,68.64
2018-05-23T03:12:43.174Z,68.54
2018-05-23T03:13:43.124Z,68.44
2018-05-23T03:14:43.059Z,68.44
2018-05-23T03:15:42.988Z,68.44
2018-05-23T03:16:42.929Z,68.44
2018-05-23T03:17:42.865Z,68.44
2018-05-23T03:18:42.792Z,69.22
2018-05-23T03:19:42.741Z,68.54
2018-05-23T03:20:42.685Z,68.32
2018-05-23T03:21:42.608Z,68.54
2018-05-23T03:22:42.532Z,68.51
2018-05-23T03:23:42.474Z,68.60
2018-05-23T03:24:42.433Z,68.60
2018-05-23T03:25:42.352Z,68.41
2018-05-23T03:26:42.282Z,68.41
2018-05-23T03:27:42.231Z,68.32
2018-05-23T03:28:42.154Z,68.41
2018-05-23T03:29:42.097Z,68.32
2018-05-23T03:30:42.034Z,68.44
2018-05-23T03:31:41.971Z,68.35
2018-05-23T03:32:41.902Z,68.60
2018-05-23T03:33:41.869Z,68.64
2018-05-23T03:34:41.791Z,68.35
2018-05-23T03:35:41.711Z,68.90
2018-05-23T03:36:41.649Z,68.51
2018-05-23T03:37:41.585Z,68.41
2018-05-23T03:38:41.531Z,68.41
2018-05-23T03:39:41.466Z,68.13
2018-05-23T03:40:41.392Z,67.93
2018-05-23T03:41:41.322Z,68.32
2018-05-23T03:42:41.271Z,68.32
2018-05-23T03:43:41.200Z,67.90
2018-05-23T03:44:41.149Z,68.22
2018-05-23T03:45:41.084Z,67.26
2018-05-23T03:46:41.004Z,67.16
2018-05-23T03:47:40.958Z,67.51
2018-05-23T03:48:40.881Z,67.03
2018-05-23T03:49:40.821Z,67.13
2018-05-23T03:50:40.754Z,67.42
2018-05-23T03:51:40.698Z,67.90
2018-05-23T03:52:40.624Z,67.07
2018-05-23T03:53:40.565Z,67.65
2018-05-23T03:54:40.500Z,67.65
2018-05-23T03:55:40.434Z,67.13
2018-05-23T03:56:40.363Z,67.22
2018-05-23T03:57:40.304Z,67.03
2018-05-23T03:58:40.249Z,67.03
2018-05-23T03:59:40.175Z,66.97
2018-05-23T04:00:40.113Z,66.55
2018-05-23T04:01:40.061Z,66.39
2018-05-23T04:02:39.986Z,66.84
2018-05-23T04:03:39.919Z,66.88
2018-05-23T04:04:39.858Z,66.68
2018-05-23T04:05:39.803Z,66.68
2018-05-23T04:06:39.747Z,66.97
2018-05-23T04:07:39.660Z,66.68
2018-05-23T04:08:39.638Z,66.58
2018-05-23T04:09:39.589Z,66.78
2018-05-23T04:10:39.485Z,66.58
2018-05-23T04:11:39.415Z,66.78
2018-05-23T04:12:39.347Z,66.30
2018-05-23T04:13:39.289Z,66.10
2018-05-23T04:14:39.226Z,66.20
2018-05-23T04:15:39.164Z,65.81
2018-05-23T04:16:39.086Z,65.81
2018-05-23T04:17:39.043Z,65.81
2018-05-23T04:18:38.972Z,65.63
2018-05-23T04:19:38.906Z,65.72
2018-05-23T04:20:38.838Z,65.72
2018-05-23T04:21:38.787Z,65.72
2018-05-23T04:22:38.702Z,66.20
2018-05-23T04:23:38.652Z,65.53
2018-05-23T04:24:38.585Z,65.33
2018-05-23T04:25:38.517Z,65.14
2018-05-23T04:26:38.461Z,65.63
2018-05-23T04:27:38.399Z,64.05
2018-05-23T04:28:38.336Z,63.86
2018-05-23T04:29:38.261Z,63.76
2018-05-23T04:30:38.200Z,62.80
2018-05-23T04:31:38.134Z,62.71
2018-05-23T04:32:38.074Z,62.61
2018-05-23T04:33:38.014Z,62.32
2018-05-23T04:34:37.951Z,62.03
2018-05-23T04:35:37.872Z,62.13
2018-05-23T04:36:37.820Z,61.65
2018-05-23T04:37:37.750Z,61.84
2018-05-23T04:38:37.691Z,61.94
2018-05-23T04:39:37.619Z,62.03
2018-05-23T04:40:37.565Z,61.07
2018-05-23T04:41:37.486Z,60.88
2018-05-23T04:42:37.434Z,60.97
2018-05-23T04:43:37.402Z,61.07
2018-05-23T04:44:37.308Z,60.97
2018-05-23T04:45:37.246Z,61.07
2018-05-23T04:46:37.171Z,61.55
2018-05-23T04:47:37.124Z,61.74
2018-05-23T04:48:37.060Z,60.69
2018-05-23T04:49:36.983Z,59.12
2018-05-23T04:50:36.906Z,58.15
2018-05-23T04:51:36.858Z,57.20
2018-05-23T04:52:36.789Z,56.81
2018-05-23T04:53:36.727Z,56.23
2018-05-23T04:54:36.663Z,57.22
2018-05-23T04:55:36.644Z,58.09
2018-05-23T04:56:36.543Z,57.99
2018-05-23T04:57:36.484Z,58.09
2018-05-23T04:58:36.413Z,58.28
2018-05-23T04:59:36.339Z,57.90
2018-05-23T05:00:36.282Z,57.51
2018-05-23T05:01:36.205Z,57.51
2018-05-23T05:02:36.156Z,58.18
2018-05-23T05:03:36.091Z,58.28
2018-05-23T05:04:36.027Z,58.86
2018-05-23T05:05:35.964Z,59.24
2018-05-23T05:06:35.902Z,59.72
2018-05-23T05:07:35.858Z,59.63
2018-05-23T05:08:35.770Z,60.11
2018-05-23T05:09:35.710Z,60.21
2018-05-23T05:10:35.631Z,60.59
2018-05-23T05:11:35.562Z,61.07
2018-05-23T05:12:35.517Z,60.97
2018-05-23T05:13:35.447Z,60.78
2018-05-23T05:14:35.388Z,60.69
2018-05-23T05:15:35.327Z,61.16
2018-05-23T05:16:35.261Z,61.36
2018-05-23T05:17:35.192Z,61.77
2018-05-23T05:18:35.125Z,61.46
2018-05-23T05:19:35.068Z,61.58
2018-05-23T05:20:35.020Z,61.77
2018-05-23T05:21:34.942Z,62.06
2018-05-23T05:22:34.883Z,62.64
2018-05-23T05:23:34.806Z,62.54
2018-05-23T05:24:34.757Z,63.02
2018-05-23T05:25:34.675Z,62.23
2018-05-23T05:26:34.621Z,62.03
2018-05-23T05:27:34.546Z,60.85
2018-05-23T05:28:34.495Z,60.66
2018-05-23T05:29:34.419Z,60.94
2018-05-23T05:30:34.366Z,60.75
2018-05-23T05:31:34.289Z,61.33
2018-05-23T05:32:34.270Z,61.46
2018-05-23T05:33:34.174Z,61.74
2018-05-23T05:34:34.103Z,60.37
2018-05-23T05:35:34.033Z,59.22
2018-05-23T05:36:33.986Z,59.22
2018-05-23T05:37:33.905Z,58.51
2018-05-23T05:38:33.855Z,58.13
2018-05-23T05:39:33.787Z,59.12
2018-05-23T05:40:33.718Z,59.69
2018-05-23T05:41:33.660Z,59.99
2018-05-23T05:42:33.593Z,59.41
2018-05-23T05:43:33.540Z,59.60
2018-05-23T05:44:33.473Z,60.27
2018-05-23T05:45:33.415Z,60.85
2018-05-23T05:46:33.342Z,60.78
2018-05-23T05:47:33.269Z,61.36
2018-05-23T05:48:33.217Z,61.26
2018-05-23T05:49:33.167Z,61.36
2018-05-23T05:50:33.092Z,61.07
2018-05-23T05:51:33.017Z,61.65
2018-05-23T05:52:32.958Z,61.84
2018-05-23T05:53:32.974Z,61.36
2018-05-23T05:54:32.825Z,61.07
2018-05-23T05:55:32.758Z,61.46
2018-05-23T05:56:32.709Z,61.55
2018-05-23T05:57:32.634Z,62.41
2018-05-23T05:58:32.598Z,62.80
2018-05-23T05:59:32.520Z,62.61
2018-05-23T06:00:32.455Z,62.41
2018-05-23T06:01:32.392Z,62.80
2018-05-23T06:02:32.316Z,63.41
2018-05-23T06:03:32.262Z,63.51
2018-05-23T06:04:32.207Z,63.79
2018-05-23T06:05:32.145Z,64.47
2018-05-23T06:06:32.075Z,63.79
2018-05-23T06:07:32.004Z,63.99
2018-05-23T06:08:31.957Z,64.08
2018-05-23T06:09:31.927Z,63.99
2018-05-23T06:10:31.835Z,64.31
2018-05-23T06:11:31.754Z,64.31
2018-05-23T06:12:31.688Z,64.66
2018-05-23T06:13:31.623Z,65.17
2018-05-23T06:14:31.569Z,64.76
2018-05-23T06:15:31.520Z,64.95
2018-05-23T06:16:31.433Z,64.86
2018-05-23T06:17:31.375Z,65.05
2018-05-23T06:18:31.385Z,64.92
2018-05-23T06:19:31.240Z,64.73
2018-05-23T06:20:31.192Z,64.73
2018-05-23T06:21:31.121Z,65.05
2018-05-23T06:22:31.065Z,64.76
2018-05-23T06:23:31.004Z,64.66
2018-05-23T06:24:30.939Z,64.86
2018-05-23T06:25:30.862Z,65.43
2018-05-23T06:26:30.802Z,64.86
2018-05-23T06:27:30.743Z,65.14
2018-05-23T06:28:30.683Z,65.53
2018-05-23T06:29:30.625Z,65.63
2018-05-23T06:30:30.682Z,65.72
2018-05-23T06:31:30.515Z,65.43
2018-05-23T06:32:30.429Z,65.37
2018-05-23T06:33:30.378Z,65.24
2018-05-23T06:34:30.314Z,65.63
2018-05-23T06:35:30.308Z,65.63
2018-05-23T06:36:30.171Z,65.53
2018-05-23T06:37:30.107Z,65.53
2018-05-23T06:38:30.124Z,65.33
2018-05-23T06:39:29.995Z,65.46
2018-05-23T06:40:29.934Z,65.27
2018-05-23T06:41:29.873Z,64.92
2018-05-23T06:42:29.804Z,65.30
2018-05-23T06:43:29.795Z,64.53
2018-05-23T06:44:29.664Z,65.01
2018-05-23T06:45:29.620Z,65.11
2018-05-23T06:46:29.554Z,64.82
2018-05-23T06:47:29.497Z,64.43
2018-05-23T06:48:29.425Z,64.34
2018-05-23T06:49:29.373Z,63.95
2018-05-23T06:50:29.306Z,64.25
2018-05-23T06:51:29.250Z,63.89
2018-05-23T06:52:29.178Z,63.21
2018-05-23T06:53:29.123Z,62.63
2018-05-23T06:54:29.047Z,63.21
2018-05-23T06:55:29.009Z,63.02
2018-05-23T06:56:28.920Z,63.41
2018-05-23T06:57:28.870Z,63.12
2018-05-23T06:58:28.809Z,63.12
2018-05-23T06:59:28.744Z,63.21
2018-05-23T07:00:28.677Z,63.12
2018-05-23T07:01:28.613Z,63.02
2018-05-23T07:02:28.554Z,63.50
2018-05-23T07:03:28.494Z,63.12
2018-05-23T07:04:28.447Z,63.21
2018-05-23T07:05:28.368Z,63.15
2018-05-23T07:06:28.310Z,63.15
2018-05-23T07:07:28.252Z,62.48
2018-05-23T07:08:28.174Z,62.86
2018-05-23T07:09:28.118Z,63.41
2018-05-23T07:10:28.055Z,63.60
2018-05-23T07:11:28.004Z,63.60
2018-05-23T07:12:27.937Z,64.28
2018-05-23T07:13:27.867Z,64.56
2018-05-23T07:14:27.811Z,65.24
2018-05-23T07:15:27.742Z,66.75
2018-05-23T07:16:27.687Z,67.97
2018-05-23T07:17:27.619Z,67.52
2018-05-23T07:18:27.563Z,66.94
2018-05-23T07:19:27.505Z,66.85
2018-05-23T07:20:27.455Z,65.98
2018-05-23T07:21:27.387Z,65.50
2018-05-23T07:22:27.310Z,65.50
2018-05-23T07:23:27.287Z,64.86
2018-05-23T07:24:27.191Z,64.18
2018-05-23T07:25:27.143Z,63.79
2018-05-23T07:26:27.071Z,63.60
2018-05-23T07:27:27.003Z,63.15
2018-05-23T07:28:26.943Z,62.18
2018-05-23T07:29:26.885Z,62.66
2018-05-23T07:30:26.823Z,62.48
2018-05-23T07:31:26.770Z,63.02
2018-05-23T07:32:26.712Z,64.66
2018-05-23T07:33:26.648Z,65.33
2018-05-23T07:34:26.570Z,66.01
2018-05-23T07:35:26.524Z,67.42
2018-05-23T07:36:26.484Z,67.13
2018-05-23T07:37:26.389Z,66.59
2018-05-23T07:38:26.372Z,66.59
2018-05-23T07:39:26.281Z,65.33
2018-05-23T07:40:26.211Z,64.89
2018-05-23T07:41:26.148Z,64.40
2018-05-23T07:42:26.092Z,63.73
2018-05-23T07:43:26.023Z,63.18
2018-05-23T07:44:25.973Z,64.50
2018-05-23T07:45:25.898Z,63.92
2018-05-23T07:46:25.851Z,65.27
2018-05-23T07:47:25.784Z,65.08
2018-05-23T07:48:25.727Z,64.50
2018-05-23T07:49:25.668Z,64.59
2018-05-23T07:50:25.597Z,64.31
2018-05-23T07:51:25.548Z,63.85
2018-05-23T07:52:25.478Z,62.60
2018-05-23T07:53:25.417Z,61.54
2018-05-23T07:54:25.361Z,61.77
2018-05-23T07:55:25.319Z,60.41
2018-05-23T07:56:25.239Z,60.80
2018-05-23T07:57:25.184Z,60.89
2018-05-23T07:58:25.126Z,61.38
2018-05-23T07:59:25.054Z,61.47
2018-05-23T08:00:25.006Z,61.67
2018-05-23T08:01:24.932Z,62.05
2018-05-23T08:02:24.874Z,62.82
2018-05-23T08:03:24.803Z,61.57
2018-05-23T08:04:24.742Z,61.57
2018-05-23T08:05:24.694Z,61.28
2018-05-23T08:06:24.622Z,61.47
2018-05-23T08:07:24.580Z,61.19
2018-05-23T08:08:24.507Z,61.38
2018-05-23T08:09:24.455Z,61.38
2018-05-23T08:10:24.387Z,60.73
2018-05-23T08:11:24.322Z,60.80
2018-05-23T08:12:24.265Z,61.09
2018-05-23T08:13:24.210Z,61.57
2018-05-23T08:14:24.143Z,61.67
2018-05-23T08:15:24.096Z,61.77
2018-05-23T08:16:24.028Z,61.86
2018-05-23T08:17:23.972Z,61.57
2018-05-23T08:18:23.935Z,61.77
2018-05-23T08:19:23.847Z,61.51
2018-05-23T08:20:23.777Z,60.54
2018-05-23T08:21:23.723Z,60.44
2018-05-23T08:22:23.662Z,60.93
2018-05-23T08:23:23.604Z,60.64
2018-05-23T08:24:23.626Z,61.12
2018-05-23T08:25:23.476Z,60.73
2018-05-23T08:26:23.416Z,61.60
2018-05-23T08:27:23.346Z,61.80
2018-05-23T08:28:23.308Z,61.12
2018-05-23T08:29:23.242Z,62.28
2018-05-23T08:30:23.166Z,64.56
2018-05-23T08:31:23.115Z,65.59
2018-05-23T08:32:23.062Z,65.69
2018-05-23T08:33:22.988Z,65.43
2018-05-23T08:34:22.931Z,64.28
2018-05-23T08:35:22.873Z,63.50
2018-05-23T08:36:22.840Z,63.40
2018-05-23T08:37:22.752Z,64.56
2018-05-23T08:38:22.692Z,65.05
2018-05-23T08:39:22.626Z,66.01
2018-05-23T08:40:22.571Z,65.63
2018-05-23T08:41:22.515Z,65.91
2018-05-23T08:42:22.453Z,65.24
2018-05-23T08:43:22.395Z,64.66
2018-05-23T08:44:22.341Z,64.28
2018-05-23T08:45:22.274Z,64.56
2018-05-23T08:46:22.216Z,63.63
2018-05-23T08:47:22.156Z,63.43
2018-05-23T08:48:22.084Z,64.66
2018-05-23T08:49:22.037Z,65.24
2018-05-23T08:50:21.967Z,65.82
2018-05-23T08:51:21.916Z,65.91
2018-05-23T08:52:21.843Z,64.37
2018-05-23T08:53:21.801Z,63.98
2018-05-23T08:54:21.731Z,63.24
2018-05-23T08:55:21.665Z,63.15
2018-05-23T08:56:21.603Z,63.05
2018-05-23T08:57:21.552Z,62.95
2018-05-23T08:58:21.497Z,62.08
2018-05-23T08:59:21.429Z,61.83
2018-05-23T09:00:21.367Z,61.80
2018-05-23T09:01:21.302Z,61.89
2018-05-23T09:02:21.237Z,61.12
2018-05-23T09:03:21.188Z,61.89
2018-05-23T09:04:21.125Z,61.80
2018-05-23T09:05:21.056Z,61.44
2018-05-23T09:06:21.019Z,61.80
2018-05-23T09:07:20.949Z,61.80
2018-05-23T09:08:20.868Z,61.83
2018-05-23T09:09:20.810Z,61.60
2018-05-23T09:10:20.758Z,61.54
2018-05-23T09:11:20.692Z,61.31
2018-05-23T09:12:20.742Z,61.54
2018-05-23T09:13:20.570Z,61.34
2018-05-23T09:14:20.528Z,61.25
2018-05-23T09:15:20.481Z,62.02
2018-05-23T09:16:20.400Z,61.73
2018-05-23T09:17:20.331Z,61.54
2018-05-23T09:18:20.270Z,61.34
2018-05-23T09:19:20.217Z,61.34
2018-05-23T09:20:20.142Z,60.67
2018-05-23T09:21:20.110Z,61.34
2018-05-23T09:22:20.037Z,60.47
2018-05-23T09:23:19.971Z,60.11
2018-05-23T09:24:19.907Z,59.53
2018-05-23T09:25:19.906Z,59.34
2018-05-23T09:26:19.784Z,58.76
2018-05-23T09:27:19.718Z,58.37
2018-05-23T09:28:19.664Z,58.18
2018-05-23T09:29:19.604Z,58.02
2018-05-23T09:30:19.556Z,58.40
2018-05-23T09:31:19.480Z,58.21
2018-05-23T09:32:19.453Z,58.21
2018-05-23T09:33:19.372Z,57.92
2018-05-23T09:34:19.307Z,58.21
2018-05-23T09:35:19.246Z,57.73
2018-05-23T09:36:19.187Z,57.63
2018-05-23T09:37:19.124Z,57.82
2018-05-23T09:38:19.086Z,57.73
2018-05-23T09:39:19.071Z,57.28
2018-05-23T09:40:18.942Z,57.54
2018-05-23T09:41:18.889Z,57.63
2018-05-23T09:42:18.828Z,57.63
2018-05-23T09:43:18.757Z,57.63
2018-05-23T09:44:18.704Z,57.63
2018-05-23T09:45:18.658Z,57.54
2018-05-23T09:46:18.588Z,57.92
2018-05-23T09:47:18.537Z,58.02
2018-05-23T09:48:18.461Z,58.40
2018-05-23T09:49:18.406Z,58.67
2018-05-23T09:50:18.367Z,58.40
2018-05-23T09:51:18.289Z,58.50
2018-05-23T09:52:18.230Z,58.60
2018-05-23T09:53:18.168Z,58.60
2018-05-23T09:54:18.115Z,58.60
2018-05-23T09:55:18.052Z,58.50
2018-05-23T09:56:17.999Z,58.50
2018-05-23T09:57:17.939Z,58.92
2018-05-23T09:58:17.874Z,58.80
2018-05-23T09:59:17.814Z,58.72
2018-05-23T10:00:17.757Z,58.92
2018-05-23T10:01:17.702Z,58.72
2018-05-23T10:02:17.629Z,59.08
2018-05-23T10:03:17.573Z,59.11
2018-05-23T10:04:17.525Z,58.82
2018-05-23T10:05:17.471Z,58.72
2018-05-23T10:06:17.394Z,58.82
2018-05-23T10:07:17.343Z,59.11
2018-05-23T10:08:17.266Z,59.79
2018-05-23T10:09:17.227Z,59.50
2018-05-23T10:10:17.163Z,59.01
2018-05-23T10:11:17.095Z,59.89
2018-05-23T10:12:17.034Z,59.40
2018-05-23T10:13:16.990Z,60.14
2018-05-23T10:14:16.917Z,60.47
2018-05-23T10:15:16.871Z,60.92
2018-05-23T10:16:16.803Z,60.85
2018-05-23T10:17:16.739Z,61.33
2018-05-23T10:18:16.688Z,61.82
2018-05-23T10:19:16.614Z,61.92
2018-05-23T10:20:16.599Z,61.92
2018-05-23T10:21:16.507Z,61.72
2018-05-23T10:22:16.449Z,61.63
2018-05-23T10:23:16.380Z,61.53
2018-05-23T10:24:16.325Z,61.43
2018-05-23T10:25:16.265Z,61.63
2018-05-23T10:26:16.213Z,61.43
2018-05-23T10:27:16.148Z,61.66
2018-05-23T10:28:16.077Z,60.59
2018-05-23T10:29:16.036Z,61.46
2018-05-23T10:30:15.985Z,60.88
2018-05-23T10:31:15.906Z,60.30
2018-05-23T10:32:15.851Z,60.30
2018-05-23T10:33:15.795Z,60.24
2018-05-23T10:34:15.750Z,60.62
2018-05-23T10:35:15.743Z,60.14
2018-05-23T10:36:15.611Z,60.62
2018-05-23T10:37:15.554Z,60.50
2018-05-23T10:38:15.497Z,60.98
2018-05-23T10:39:15.422Z,61.18
2018-05-23T10:40:15.397Z,61.85
2018-05-23T10:41:15.328Z,60.88
2018-05-23T10:42:15.255Z,60.30
2018-05-23T10:43:15.200Z,60.52
2018-05-23T10:44:15.129Z,60.30
2018-05-23T10:45:15.071Z,60.43
2018-05-23T10:46:15.047Z,60.30
2018-05-23T10:47:14.994Z,59.72
2018-05-23T10:48:14.901Z,59.84
2018-05-23T10:49:14.829Z,59.14
2018-05-23T10:50:14.789Z,59.07
2018-05-23T10:51:14.737Z,58.88
2018-05-23T10:52:14.665Z,58.69
2018-05-23T10:53:14.611Z,58.30
2018-05-23T10:54:14.552Z,58.30
2018-05-23T10:55:14.477Z,58.59
2018-05-23T10:56:14.440Z,58.37
2018-05-23T10:57:14.391Z,58.47
2018-05-23T10:58:14.302Z,58.39
2018-05-23T10:59:14.242Z,58.20
2018-05-23T11:00:14.260Z,58.59
2018-05-23T11:01:14.137Z,58.49
2018-05-23T11:02:14.072Z,58.11
2018-05-23T11:03:14.004Z,58.30
2018-05-23T11:04:13.965Z,58.39
2018-05-23T11:05:13.896Z,58.49
2018-05-23T11:06:13.833Z,58.30
2018-05-23T11:07:13.774Z,58.20
2018-05-23T11:08:13.702Z,58.52
2018-05-23T11:09:13.649Z,57.75
2018-05-23T11:10:13.611Z,57.65
2018-05-23T11:11:13.537Z,57.94
2018-05-23T11:12:13.486Z,57.55
2018-05-23T11:13:13.418Z,58.52
2018-05-23T11:14:13.359Z,58.33
2018-05-23T11:15:13.377Z,58.62
2018-05-23T11:16:13.234Z,58.81
2018-05-23T11:17:13.185Z,58.81
2018-05-23T11:18:13.128Z,59.66
2018-05-23T11:19:13.068Z,59.56
2018-05-23T11:20:13.010Z,60.07
2018-05-23T11:21:12.949Z,60.65
2018-05-23T11:22:12.882Z,60.55
2018-05-23T11:23:12.825Z,60.33
2018-05-23T11:24:12.766Z,60.46
2018-05-23T11:25:12.716Z,60.94
2018-05-23T11:26:12.649Z,60.65
2018-05-23T11:27:12.583Z,61.59
2018-05-23T11:28:12.537Z,62.75
2018-05-23T11:29:12.462Z,62.75
2018-05-23T11:30:12.411Z,62.85
2018-05-23T11:31:12.355Z,63.34
2018-05-23T11:32:12.296Z,63.72
2018-05-23T11:33:12.231Z,62.27
2018-05-23T11:34:12.180Z,62.27
2018-05-23T11:35:12.122Z,62.07
2018-05-23T11:36:12.052Z,62.37
2018-05-23T11:37:12.039Z,62.07
2018-05-23T11:38:11.938Z,61.33
2018-05-23T11:39:11.882Z,62.37
2018-05-23T11:40:11.810Z,62.59
2018-05-23T11:41:11.750Z,63.34
2018-05-23T11:42:11.699Z,65.17
2018-05-23T11:43:11.635Z,65.37
2018-05-23T11:44:11.579Z,65.95
2018-05-23T11:45:11.529Z,66.43
2018-05-23T11:46:11.449Z,64.89
2018-05-23T11:47:11.399Z,62.95
2018-05-23T11:48:11.350Z,62.85
2018-05-23T11:49:11.285Z,64.20
2018-05-23T11:50:11.226Z,65.47
2018-05-23T11:51:11.162Z,67.18
2018-05-23T11:52:11.141Z,68.18
2018-05-23T11:53:11.034Z,67.30
2018-05-23T11:54:10.980Z,66.53
2018-05-23T11:55:10.920Z,66.24
2018-05-23T11:56:10.869Z,64.50
2018-05-23T11:57:10.807Z,64.01
2018-05-23T11:58:10.743Z,64.01
2018-05-23T11:59:10.677Z,62.37
2018-05-23T12:00:10.619Z,63.34
2018-05-23T12:01:10.556Z,62.85
2018-05-23T12:02:10.491Z,61.88
2018-05-23T12:03:10.439Z,60.62
2018-05-23T12:04:10.389Z,60.52
2018-05-23T12:05:10.310Z,61.01
2018-05-23T12:06:10.264Z,61.11
2018-05-23T12:07:10.193Z,60.91
2018-05-23T12:08:10.139Z,61.01
2018-05-23T12:09:10.065Z,61.33
2018-05-23T12:10:10.021Z,60.46
2018-05-23T12:11:09.949Z,59.17
2018-05-23T12:12:09.899Z,58.91
2018-05-23T12:13:09.832Z,59.49
2018-05-23T12:14:09.771Z,59.59
2018-05-23T12:15:09.718Z,60.36
2018-05-23T12:16:09.660Z,60.46
2018-05-23T12:17:09.601Z,59.39
2018-05-23T12:18:09.522Z,59.84
2018-05-23T12:19:09.471Z,60.46
2018-05-23T12:20:09.409Z,59.88
2018-05-23T12:21:09.345Z,58.62
2018-05-23T12:22:09.290Z,58.04
2018-05-23T12:23:09.234Z,58.33
2018-05-23T12:24:09.179Z,58.81
2018-05-23T12:25:09.103Z,59.59
2018-05-23T12:26:09.046Z,59.78
2018-05-23T12:27:08.984Z,59.10
2018-05-23T12:28:08.933Z,58.26
2018-05-23T12:29:08.880Z,57.65
2018-05-23T12:30:08.813Z,55.90
2018-05-23T12:31:08.751Z,55.32
2018-05-23T12:32:08.692Z,55.90
2018-05-23T12:33:08.628Z,56.20
2018-05-23T12:34:08.570Z,57.07
2018-05-23T12:35:08.515Z,57.07
2018-05-23T12:36:08.445Z,56.97
2018-05-23T12:37:08.380Z,56.87
2018-05-23T12:38:08.320Z,57.07
2018-05-23T12:39:08.271Z,57.17
2018-05-23T12:40:08.216Z,56.77
2018-05-23T12:41:08.157Z,56.00
2018-05-23T12:42:08.082Z,55.90
2018-05-23T12:43:08.034Z,55.52
2018-05-23T12:44:07.965Z,55.42
2018-05-23T12:45:07.901Z,55.22
2018-05-23T12:46:07.844Z,55.64
2018-05-23T12:47:07.799Z,54.84
2018-05-23T12:48:07.729Z,54.26
2018-05-23T12:49:07.664Z,54.06
2018-05-23T12:50:07.603Z,53.89
2018-05-23T12:51:07.551Z,53.02
2018-05-23T12:52:07.490Z,53.12